Time;durP1;ratioP1;P1;durP2;ratioP2;P2;SDS_P1;SDS_P2;PMS_P1;PMS_P2;Temp;Humidity;BMP_temperature;BMP_pressure;BME280_temperature;BME280_humidity;BME280_pressure;Samples;Min_cycle;Max_cycle;Signal;HPM_P1;HPM_P2
2024/01/27 00:00:06;;;;;;;4.17;2.33;;;6.50;99.90;;;;;;4990859;28;20931;-73
2024/01/27 00:02:34;;;;;;;2.33;1.40;;;6.50;99.90;;;;;;4997403;28;20252;-73
2024/01/27 00:05:00;;;;;;;2.47;1.80;;;6.50;99.90;;;;;;5000776;28;20457;-73
2024/01/27 00:07:27;;;;;;;6.73;2.20;;;6.50;99.90;;;;;;5008222;28;20746;-73
2024/01/27 00:09:52;;;;;;;2.50;1.77;;;6.50;99.90;;;;;;5007941;28;20222;-73
2024/01/27 00:12:18;;;;;;;3.20;2.27;;;6.50;99.90;;;;;;5009660;28;20457;-73
2024/01/27 00:14:44;;;;;;;4.83;1.90;;;6.50;99.90;;;;;;5005471;28;20317;-73
2024/01/27 00:17:10;;;;;;;5.20;2.07;;;6.40;99.90;;;;;;4995557;28;20209;-73
2024/01/27 00:19:36;;;;;;;3.87;1.70;;;6.40;99.90;;;;;;5005574;28;20986;-73
2024/01/27 00:22:02;;;;;;;3.47;2.00;;;6.40;99.90;;;;;;5006278;28;20673;-73
2024/01/27 00:24:28;;;;;;;3.97;1.77;;;6.40;99.90;;;;;;5008163;28;20238;-73
2024/01/27 00:26:53;;;;;;;4.07;2.30;;;6.30;99.90;;;;;;5000472;28;20471;-73
2024/01/27 00:29:20;;;;;;;5.63;2.50;;;6.30;99.90;;;;;;5001174;28;20301;-73
2024/01/27 00:31:45;;;;;;;6.97;2.70;;;6.20;99.90;;;;;;5004794;28;20569;-72
2024/01/27 00:34:11;;;;;;;4.60;2.53;;;6.20;99.90;;;;;;4978979;28;20898;-73
2024/01/27 00:36:36;;;;;;;4.93;2.50;;;6.20;99.90;;;;;;5004625;28;20667;-73
2024/01/27 00:39:03;;;;;;;2.73;1.73;;;6.20;99.90;;;;;;4993621;28;20276;-73
2024/01/27 00:41:29;;;;;;;3.80;1.80;;;6.20;99.90;;;;;;5009759;28;20233;-73
2024/01/27 00:43:54;;;;;;;4.03;2.43;;;6.20;99.90;;;;;;5002490;28;20831;-73
2024/01/27 00:46:20;;;;;;;9.40;2.27;;;6.10;99.90;;;;;;5000601;28;20222;-72
2024/01/27 00:48:46;;;;;;;2.53;1.63;;;6.10;99.90;;;;;;5006397;28;20297;-72
2024/01/27 00:51:12;;;;;;;4.03;2.00;;;6.10;99.90;;;;;;4999669;28;20245;-72
2024/01/27 00:53:38;;;;;;;3.97;1.60;;;5.90;99.90;;;;;;5008932;28;20460;-72
2024/01/27 00:56:04;;;;;;;5.70;2.23;;;5.80;99.90;;;;;;5003513;28;20479;-72
2024/01/27 00:58:31;;;;;;;2.37;2.00;;;5.90;99.90;;;;;;5004039;28;20488;-72
2024/01/27 01:00:57;;;;;;;3.20;1.83;;;5.90;99.90;;;;;;5008667;28;20227;-73
2024/01/27 01:03:22;;;;;;;3.90;2.30;;;5.90;99.90;;;;;;4991352;28;20464;-72
2024/01/27 01:05:48;;;;;;;3.33;1.83;;;5.60;99.90;;;;;;4999219;28;20222;-72
2024/01/27 01:08:13;;;;;;;3.37;1.70;;;5.50;99.90;;;;;;5000815;28;20213;-73
2024/01/27 01:10:39;;;;;;;3.00;2.03;;;5.50;99.90;;;;;;4993866;28;20213;-73
2024/01/27 01:13:05;;;;;;;3.27;1.20;;;5.60;99.90;;;;;;5001351;28;20229;-74
2024/01/27 01:15:31;;;;;;;6.43;1.53;;;5.70;99.90;;;;;;4998998;28;20222;-73
2024/01/27 01:17:57;;;;;;;5.73;1.63;;;5.80;99.90;;;;;;4991291;28;20994;-74
2024/01/27 01:20:25;;;;;;;6.63;1.87;;;5.80;99.90;;;;;;5008821;28;20453;-73
2024/01/27 01:22:52;;;;;;;1.43;1.33;;;5.80;99.90;;;;;;5005455;28;20333;-72
2024/01/27 01:25:18;;;;;;;8.07;2.10;;;5.90;99.90;;;;;;4992112;28;20460;-73
2024/01/27 01:27:46;;;;;;;2.93;1.47;;;5.80;99.90;;;;;;5014988;28;20927;-73
2024/01/27 01:30:12;;;;;;;4.87;1.80;;;5.60;99.90;;;;;;5000156;28;20464;-73
2024/01/27 01:32:37;;;;;;;5.13;2.23;;;5.60;99.90;;;;;;4982520;28;20461;-73
2024/01/27 01:35:03;;;;;;;3.03;1.53;;;5.70;99.90;;;;;;5001486;28;20531;-73
2024/01/27 01:37:29;;;;;;;2.20;1.53;;;5.70;99.90;;;;;;5009433;28;20283;-73
2024/01/27 01:39:55;;;;;;;5.20;1.80;;;5.70;99.90;;;;;;4999186;28;20453;-73
2024/01/27 01:42:24;;;;;;;5.30;1.83;;;5.70;99.90;;;;;;4999724;28;20618;-72
2024/01/27 01:44:51;;;;;;;1.17;1.07;;;5.70;99.90;;;;;;4986328;28;20225;-72
2024/01/27 01:47:17;;;;;;;5.33;2.00;;;5.70;99.90;;;;;;5001230;28;20449;-72
2024/01/27 01:49:43;;;;;;;0.90;0.90;;;5.60;99.90;;;;;;4995538;28;20966;-72
2024/01/27 01:52:10;;;;;;;2.40;1.90;;;5.60;99.90;;;;;;5003193;28;20533;-73
2024/01/27 01:54:36;;;;;;;2.07;1.30;;;5.50;99.90;;;;;;5015468;28;20236;-72
2024/01/27 01:57:03;;;;;;;1.83;1.63;;;5.20;99.90;;;;;;4986085;28;20453;-73
2024/01/27 01:59:28;;;;;;;3.20;1.90;;;5.00;99.90;;;;;;4998381;28;20281;-72
2024/01/27 02:01:54;;;;;;;1.97;1.80;;;4.90;99.90;;;;;;4989230;28;20468;-73
2024/01/27 02:04:20;;;;;;;1.47;1.37;;;4.90;99.90;;;;;;5001959;28;20218;-72
2024/01/27 02:06:46;;;;;;;4.63;2.07;;;5.00;99.90;;;;;;5007998;28;20210;-73
2024/01/27 02:09:12;;;;;;;4.33;1.70;;;5.10;99.90;;;;;;4996313;28;20415;-73
2024/01/27 02:11:38;;;;;;;4.10;1.90;;;5.20;99.90;;;;;;4986121;28;20476;-73
2024/01/27 02:14:04;;;;;;;6.13;2.03;;;5.30;99.90;;;;;;4996701;28;20967;-73
2024/01/27 02:16:29;;;;;;;3.20;1.63;;;5.30;99.90;;;;;;5006623;28;20225;-73
2024/01/27 02:18:55;;;;;;;3.47;1.80;;;5.30;99.90;;;;;;5000995;28;20217;-73
2024/01/27 02:21:21;;;;;;;2.50;1.80;;;5.10;99.90;;;;;;4993642;28;20241;-72
2024/01/27 02:23:46;;;;;;;2.43;1.33;;;5.00;99.90;;;;;;5005479;28;20213;-72
2024/01/27 02:26:12;;;;;;;1.67;1.40;;;4.90;99.90;;;;;;4992976;28;21262;-73
2024/01/27 02:28:38;;;;;;;2.80;1.77;;;4.90;99.90;;;;;;5009134;28;20225;-72
2024/01/27 02:31:04;;;;;;;2.77;1.60;;;5.10;99.90;;;;;;4978733;28;20252;-73
2024/01/27 02:33:29;;;;;;;2.17;1.70;;;5.00;99.90;;;;;;5000849;28;20273;-73
2024/01/27 02:35:55;;;;;;;3.03;1.90;;;5.00;99.90;;;;;;4997679;28;20210;-73
2024/01/27 02:38:21;;;;;;;3.70;1.70;;;5.10;99.90;;;;;;5002692;28;20252;-73
2024/01/27 02:40:46;;;;;;;2.27;1.83;;;5.00;99.90;;;;;;4998664;28;20217;-72
2024/01/27 02:43:12;;;;;;;4.73;1.90;;;5.10;99.90;;;;;;5008706;28;20709;-72
2024/01/27 02:45:38;;;;;;;6.53;1.60;;;5.00;99.90;;;;;;5000887;28;20308;-72
2024/01/27 02:48:04;;;;;;;1.90;1.10;;;4.90;99.90;;;;;;4996804;28;20211;-73
2024/01/27 02:50:29;;;;;;;2.00;1.80;;;4.90;99.90;;;;;;5001464;28;20244;-72
2024/01/27 02:52:55;;;;;;;1.67;1.23;;;4.70;99.90;;;;;;4996314;28;20484;-73
2024/01/27 02:55:21;;;;;;;3.30;1.33;;;4.80;99.90;;;;;;4982312;28;20248;-72
2024/01/27 02:57:46;;;;;;;4.87;1.40;;;4.90;99.90;;;;;;5004040;28;20217;-73
2024/01/27 03:00:12;;;;;;;7.90;1.80;;;5.00;99.90;;;;;;5001473;28;20225;-73
2024/01/27 03:02:38;;;;;;;1.70;1.60;;;5.00;99.90;;;;;;5004121;28;20309;-72
2024/01/27 03:05:04;;;;;;;3.10;1.57;;;5.10;99.90;;;;;;4985682;28;20464;-72
2024/01/27 03:07:30;;;;;;;2.23;1.80;;;5.00;99.90;;;;;;5005596;28;20225;-72
2024/01/27 03:09:56;;;;;;;2.83;1.90;;;5.00;99.90;;;;;;4996135;28;20492;-72
2024/01/27 03:12:22;;;;;;;6.00;3.07;;;5.00;99.90;;;;;;5010911;28;20480;-72
2024/01/27 03:14:49;;;;;;;4.67;2.67;;;5.00;99.90;;;;;;4978507;28;20226;-72
2024/01/27 03:17:15;;;;;;;5.07;2.60;;;5.00;99.90;;;;;;4995758;28;20813;-73
2024/01/27 03:19:41;;;;;;;3.97;1.90;;;5.00;99.90;;;;;;4993297;28;20511;-72
2024/01/27 03:22:06;;;;;;;5.30;2.17;;;5.00;99.90;;;;;;4993748;28;20479;-72
2024/01/27 03:24:32;;;;;;;9.13;3.43;;;4.90;99.90;;;;;;5010894;28;20226;-72
2024/01/27 03:26:58;;;;;;;1.83;1.73;;;4.80;99.90;;;;;;5006265;28;20228;-72
2024/01/27 03:29:23;;;;;;;7.67;2.10;;;4.90;99.90;;;;;;5008461;28;20218;-72
2024/01/27 03:31:49;;;;;;;5.63;2.63;;;4.90;99.90;;;;;;5005516;28;20217;-72
2024/01/27 03:34:15;;;;;;;4.47;3.03;;;4.90;99.90;;;;;;4995670;28;20226;-72
2024/01/27 03:36:40;;;;;;;7.50;2.33;;;4.90;99.90;;;;;;5005106;28;20216;-72
2024/01/27 03:39:07;;;;;;;8.87;2.50;;;4.90;99.90;;;;;;5000288;28;20248;-72
2024/01/27 03:41:33;;;;;;;3.67;1.60;;;4.80;99.90;;;;;;5002282;28;20323;-72
2024/01/27 03:43:59;;;;;;;6.00;2.23;;;4.80;99.90;;;;;;5002055;28;20492;-72
2024/01/27 03:46:24;;;;;;;3.53;1.97;;;4.80;99.90;;;;;;4988313;28;20226;-72
2024/01/27 03:48:50;;;;;;;7.53;1.93;;;4.80;99.90;;;;;;5009086;28;20249;-72
2024/01/27 03:51:16;;;;;;;6.30;1.97;;;4.70;99.90;;;;;;5001086;28;20217;-72
2024/01/27 03:53:41;;;;;;;2.00;1.90;;;4.70;99.90;;;;;;4998747;28;20276;-72
2024/01/27 03:56:11;;;;;;;3.73;1.57;;;4.70;99.90;;;;;;5000465;28;20217;-72
2024/01/27 03:58:38;;;;;;;2.93;1.47;;;4.60;99.90;;;;;;4991899;28;20234;-72
2024/01/27 04:01:04;;;;;;;2.60;1.80;;;4.60;99.90;;;;;;4985852;28;20466;-73
2024/01/27 04:03:29;;;;;;;1.80;1.50;;;4.60;99.90;;;;;;5006605;28;20535;-72
2024/01/27 04:05:55;;;;;;;6.50;2.40;;;4.60;99.90;;;;;;5000964;28;20209;-72
2024/01/27 04:08:21;;;;;;;2.33;1.50;;;4.50;99.90;;;;;;5003969;28;20228;-72
2024/01/27 04:10:47;;;;;;;6.40;2.20;;;4.40;99.90;;;;;;4985895;28;20293;-72
2024/01/27 04:13:13;;;;;;;2.83;2.10;;;4.40;99.90;;;;;;4993849;28;20231;-72
2024/01/27 04:15:38;;;;;;;1.63;1.40;;;4.40;99.90;;;;;;4981773;28;20959;-72
2024/01/27 04:18:05;;;;;;;5.43;2.00;;;4.30;99.90;;;;;;4963963;28;20694;-72
2024/01/27 04:20:31;;;;;;;1.90;1.60;;;4.30;99.90;;;;;;4990761;28;20218;-72
2024/01/27 04:22:57;;;;;;;5.03;1.70;;;4.20;99.90;;;;;;5001291;28;20853;-72
2024/01/27 04:25:23;;;;;;;2.73;1.63;;;4.20;99.90;;;;;;5007918;28;20227;-72
2024/01/27 04:27:49;;;;;;;1.40;1.30;;;4.10;99.90;;;;;;5003704;28;20224;-72
2024/01/27 04:30:15;;;;;;;3.60;1.50;;;4.10;99.90;;;;;;5005820;28;20459;-72
2024/01/27 04:32:40;;;;;;;1.57;1.47;;;4.00;99.90;;;;;;5007073;28;20217;-73
2024/01/27 04:35:10;;;;;;;2.60;1.30;;;4.00;99.90;;;;;;5004040;28;20653;-72
2024/01/27 04:37:36;;;;;;;3.10;1.20;;;4.10;99.90;;;;;;5000040;28;20232;-72
2024/01/27 04:40:02;;;;;;;2.07;1.83;;;4.10;99.90;;;;;;5000956;28;20457;-72
2024/01/27 04:42:27;;;;;;;2.30;1.40;;;4.10;99.90;;;;;;5010233;28;20552;-72
2024/01/27 04:44:53;;;;;;;1.40;1.20;;;4.00;99.90;;;;;;5006009;28;20547;-72
2024/01/27 04:47:19;;;;;;;2.50;1.20;;;4.10;99.90;;;;;;5009167;28;20226;-72
2024/01/27 04:49:44;;;;;;;5.40;1.90;;;4.20;99.90;;;;;;4986524;28;20218;-72
2024/01/27 04:52:10;;;;;;;3.43;1.70;;;4.20;99.90;;;;;;5006177;28;20221;-72
2024/01/27 04:54:36;;;;;;;2.33;1.70;;;4.20;99.90;;;;;;5007747;28;20229;-71
2024/01/27 04:57:02;;;;;;;1.40;1.30;;;4.20;99.90;;;;;;4987866;28;20218;-72
2024/01/27 04:59:28;;;;;;;3.63;1.50;;;4.20;99.90;;;;;;5004819;28;20534;-72
2024/01/27 05:01:53;;;;;;;2.20;1.63;;;4.10;99.90;;;;;;5011058;28;20225;-72
2024/01/27 05:04:19;;;;;;;2.00;1.47;;;4.10;99.90;;;;;;5018526;28;20230;-72
2024/01/27 05:06:45;;;;;;;1.57;1.47;;;4.10;99.90;;;;;;5015747;28;20210;-72
2024/01/27 05:09:11;;;;;;;4.60;1.90;;;4.10;99.90;;;;;;5001603;28;20302;-72
2024/01/27 05:11:38;;;;;;;5.60;1.83;;;4.10;99.90;;;;;;5004951;28;20595;-71
2024/01/27 05:14:03;;;;;;;2.10;1.40;;;4.00;99.90;;;;;;4999986;28;20457;-73
2024/01/27 05:16:29;;;;;;;2.70;1.60;;;4.10;99.90;;;;;;5002634;28;20460;-72
2024/01/27 05:18:55;;;;;;;4.60;1.67;;;4.20;99.90;;;;;;5002850;28;20316;-73
2024/01/27 05:21:22;;;;;;;2.87;2.00;;;4.10;99.90;;;;;;5005975;28;20234;-72
2024/01/27 05:23:47;;;;;;;3.03;1.60;;;4.20;99.90;;;;;;5009525;28;20449;-72
2024/01/27 05:26:13;;;;;;;16.37;2.20;;;4.20;99.90;;;;;;4999346;28;21167;-72
2024/01/27 05:28:39;;;;;;;10.90;2.30;;;4.10;99.90;;;;;;5001381;28;20230;-72
2024/01/27 05:31:08;;;;;;;6.43;1.80;;;4.00;99.90;;;;;;5001617;28;20663;-72
2024/01/27 05:33:35;;;;;;;2.60;2.00;;;4.00;99.90;;;;;;5000156;28;20605;-72
2024/01/27 05:36:01;;;;;;;2.00;1.43;;;4.10;99.90;;;;;;4994877;28;20499;-72
2024/01/27 05:38:28;;;;;;;2.97;2.07;;;4.00;99.90;;;;;;4999670;28;20464;-72
2024/01/27 05:40:54;;;;;;;7.60;1.80;;;4.00;99.90;;;;;;4994109;28;20476;-72
2024/01/27 05:43:19;;;;;;;2.40;1.70;;;4.00;99.90;;;;;;5020069;28;20462;-72
2024/01/27 05:45:46;;;;;;;6.63;2.50;;;3.80;99.90;;;;;;5002625;28;20224;-72
2024/01/27 05:48:12;;;;;;;1.60;1.50;;;3.70;99.90;;;;;;5008047;28;20723;-72
2024/01/27 05:50:40;;;;;;;2.00;1.60;;;3.80;99.90;;;;;;5004283;28;20457;-72
2024/01/27 05:53:06;;;;;;;4.67;1.87;;;3.90;99.90;;;;;;4989497;28;20217;-72
2024/01/27 05:55:31;;;;;;;3.30;1.77;;;3.90;99.90;;;;;;4987079;28;20532;-72
2024/01/27 05:57:59;;;;;;;2.23;1.67;;;4.00;99.90;;;;;;4987549;28;20447;-72
2024/01/27 06:00:24;;;;;;;2.50;1.30;;;4.00;99.90;;;;;;4986040;28;20445;-72
2024/01/27 06:02:50;;;;;;;1.80;1.30;;;4.10;99.90;;;;;;5003785;28;20313;-72
2024/01/27 06:05:16;;;;;;;1.77;1.67;;;4.10;99.90;;;;;;4999343;28;20265;-72
2024/01/27 06:07:42;;;;;;;6.00;1.90;;;4.20;99.90;;;;;;5002017;28;20230;-71
2024/01/27 06:10:09;;;;;;;1.70;1.60;;;4.00;99.90;;;;;;5003974;28;20248;-72
2024/01/27 06:12:35;;;;;;;8.20;2.00;;;3.80;99.90;;;;;;4986861;28;20461;-72
2024/01/27 06:15:01;;;;;;;1.40;1.30;;;3.80;99.90;;;;;;4986338;28;20479;-72
2024/01/27 06:17:26;;;;;;;3.37;1.60;;;3.90;99.90;;;;;;5013604;28;20544;-72
2024/01/27 06:19:52;;;;;;;2.13;1.57;;;3.90;99.90;;;;;;5011226;28;20209;-71
2024/01/27 06:22:18;;;;;;;6.77;1.77;;;4.00;99.90;;;;;;5001953;28;20326;-72
2024/01/27 06:24:44;;;;;;;7.90;1.63;;;4.00;99.90;;;;;;4983606;28;20286;-72
2024/01/27 06:27:10;;;;;;;5.70;1.67;;;4.10;99.90;;;;;;4976250;28;20242;-72
2024/01/27 06:29:36;;;;;;;4.67;1.67;;;4.20;99.90;;;;;;4997732;28;20468;-72
2024/01/27 06:32:01;;;;;;;5.10;1.93;;;4.10;99.90;;;;;;4999915;28;20510;-72
2024/01/27 06:34:27;;;;;;;4.17;1.73;;;4.10;99.90;;;;;;5001158;28;20221;-71
2024/01/27 06:36:52;;;;;;;2.87;1.53;;;4.20;99.90;;;;;;5000776;28;20229;-71
2024/01/27 06:39:18;;;;;;;6.53;2.60;;;4.20;99.90;;;;;;4989102;28;20218;-71
2024/01/27 06:41:44;;;;;;;8.00;3.07;;;4.10;99.90;;;;;;4987950;28;20720;-72
2024/01/27 06:44:09;;;;;;;4.17;3.77;;;4.10;99.90;;;;;;4990278;28;20316;-72
2024/01/27 06:46:35;;;;;;;10.70;3.00;;;4.20;99.90;;;;;;5003413;28;20312;-72
2024/01/27 06:49:01;;;;;;;9.60;6.17;;;4.10;99.90;;;;;;5001330;28;20217;-72
2024/01/27 06:51:27;;;;;;;18.47;11.40;;;4.10;99.90;;;;;;4987692;28;20218;-71
2024/01/27 06:53:53;;;;;;;21.40;16.47;;;4.10;99.90;;;;;;4997104;28;20459;-72
2024/01/27 06:56:18;;;;;;;12.97;11.40;;;4.10;99.90;;;;;;4987235;28;20244;-72
2024/01/27 06:58:44;;;;;;;9.90;5.93;;;4.20;99.90;;;;;;4984788;28;20256;-71
2024/01/27 07:01:10;;;;;;;5.83;4.43;;;4.20;99.90;;;;;;4961710;28;20297;-71
2024/01/27 07:03:36;;;;;;;5.00;3.83;;;4.20;99.90;;;;;;4985818;28;20308;-72
2024/01/27 07:06:02;;;;;;;5.30;3.23;;;4.20;99.90;;;;;;4986920;28;20476;-72
2024/01/27 07:08:27;;;;;;;6.40;2.83;;;4.20;99.90;;;;;;4998270;28;20730;-72
2024/01/27 07:10:53;;;;;;;4.83;2.80;;;4.10;99.90;;;;;;4987330;28;20214;-72
2024/01/27 07:13:19;;;;;;;4.37;3.50;;;4.10;99.90;;;;;;5003851;28;20621;-71
2024/01/27 07:15:44;;;;;;;4.00;3.47;;;4.10;99.90;;;;;;5000886;28;20250;-70
2024/01/27 07:18:11;;;;;;;4.50;2.70;;;4.10;99.90;;;;;;4985698;28;20213;-71
2024/01/27 07:20:37;;;;;;;4.63;3.20;;;4.00;99.90;;;;;;5009990;28;20226;-72
2024/01/27 07:23:02;;;;;;;3.90;3.10;;;4.00;99.90;;;;;;5000850;28;20475;-72
2024/01/27 07:25:29;;;;;;;3.17;2.80;;;3.80;99.90;;;;;;5001579;28;20250;-72
2024/01/27 07:27:55;;;;;;;22.00;7.73;;;3.80;99.90;;;;;;4985064;28;20684;-72
2024/01/27 07:30:20;;;;;;;11.50;7.40;;;3.90;99.90;;;;;;4999611;28;20473;-71
2024/01/27 07:32:46;;;;;;;9.80;4.00;;;4.00;99.90;;;;;;5004937;28;20217;-71
2024/01/27 07:35:12;;;;;;;6.53;2.93;;;4.00;99.90;;;;;;4985717;28;20222;-72
2024/01/27 07:37:38;;;;;;;5.10;3.23;;;4.10;99.90;;;;;;5003460;28;20222;-72
2024/01/27 07:40:05;;;;;;;4.90;3.30;;;4.00;99.90;;;;;;5008206;28;20600;-72
2024/01/27 07:42:31;;;;;;;4.80;2.53;;;4.00;99.90;;;;;;5003984;28;20237;-71
2024/01/27 07:44:57;;;;;;;3.20;2.30;;;4.00;99.90;;;;;;5004588;28;20511;-71
2024/01/27 07:47:23;;;;;;;2.33;2.00;;;4.10;99.90;;;;;;5005841;28;20244;-71
2024/01/27 07:49:48;;;;;;;3.00;2.67;;;4.10;99.90;;;;;;4997678;28;21059;-72
2024/01/27 07:52:14;;;;;;;4.17;3.13;;;4.10;99.90;;;;;;4982541;28;20249;-72
2024/01/27 07:54:40;;;;;;;12.93;3.73;;;4.10;99.90;;;;;;4998648;28;20313;-72
2024/01/27 07:57:06;;;;;;;21.37;9.57;;;4.10;99.90;;;;;;4998009;28;20265;-72
2024/01/27 07:59:32;;;;;;;20.60;9.60;;;4.10;99.90;;;;;;5001165;28;20226;-72
2024/01/27 08:01:59;;;;;;;15.90;6.87;;;4.10;99.90;;;;;;4999022;28;20473;-72
2024/01/27 08:04:25;;;;;;;17.73;8.30;;;4.10;99.90;;;;;;4973762;28;20207;-72
2024/01/27 08:06:53;;;;;;;12.83;5.97;;;4.10;99.90;;;;;;5000970;28;20470;-72
2024/01/27 08:09:19;;;;;;;7.50;5.00;;;4.10;99.90;;;;;;4993134;28;20291;-73
2024/01/27 08:11:45;;;;;;;6.00;4.00;;;4.10;99.90;;;;;;5004920;28;20471;-72
2024/01/27 08:14:11;;;;;;;8.07;3.80;;;4.10;99.90;;;;;;4992965;28;20464;-72
2024/01/27 08:16:36;;;;;;;9.90;4.50;;;4.20;99.90;;;;;;5001186;28;20341;-72
2024/01/27 08:19:02;;;;;;;9.90;4.13;;;4.20;99.90;;;;;;4997894;28;20272;-72
2024/01/27 08:21:28;;;;;;;10.00;4.87;;;4.20;99.90;;;;;;4998934;28;20230;-73
2024/01/27 08:23:55;;;;;;;10.13;6.40;;;4.20;99.90;;;;;;5004066;28;20217;-72
2024/01/27 08:26:20;;;;;;;5.13;4.37;;;4.30;99.90;;;;;;5001817;28;20232;-72
2024/01/27 08:28:47;;;;;;;11.50;5.60;;;4.30;99.90;;;;;;5002057;28;20469;-71
2024/01/27 08:31:12;;;;;;;7.20;5.07;;;4.30;99.90;;;;;;4999027;28;20308;-72
2024/01/27 08:33:38;;;;;;;6.17;4.40;;;4.30;99.90;;;;;;4991614;28;20485;-72
2024/01/27 08:36:04;;;;;;;6.13;3.37;;;4.30;99.90;;;;;;5001647;28;20206;-73
2024/01/27 08:38:30;;;;;;;4.50;3.73;;;4.30;99.90;;;;;;5012861;28;20226;-72
2024/01/27 08:40:55;;;;;;;3.57;2.70;;;4.30;99.90;;;;;;4994646;28;20459;-72
2024/01/27 08:43:21;;;;;;;4.10;2.50;;;4.40;99.90;;;;;;4988452;28;20701;-72
2024/01/27 08:45:47;;;;;;;10.77;2.80;;;4.40;99.90;;;;;;5001980;28;20276;-72
2024/01/27 08:48:13;;;;;;;3.07;2.10;;;4.50;99.90;;;;;;4993690;28;20224;-72
2024/01/27 08:50:39;;;;;;;6.73;2.00;;;4.40;99.90;;;;;;5014656;28;20230;-72
2024/01/27 08:53:05;;;;;;;5.47;2.03;;;4.40;99.90;;;;;;5009118;28;20465;-72
2024/01/27 08:55:30;;;;;;;1.20;1.20;;;4.40;99.90;;;;;;4995102;28;20480;-73
2024/01/27 08:57:59;;;;;;;3.20;1.60;;;4.30;99.90;;;;;;5013881;28;20229;-72
2024/01/27 09:00:24;;;;;;;10.10;1.80;;;4.40;99.90;;;;;;5008920;28;20322;-72
2024/01/27 09:02:51;;;;;;;6.77;1.97;;;4.50;99.90;;;;;;5008037;28;20572;-72
2024/01/27 09:05:17;;;;;;;2.50;1.30;;;4.50;99.90;;;;;;5014623;28;20222;-72
2024/01/27 09:07:43;;;;;;;4.90;1.83;;;4.50;99.90;;;;;;5013163;28;20985;-71
2024/01/27 09:10:12;;;;;;;2.17;1.73;;;4.70;99.90;;;;;;5010052;28;20209;-72
2024/01/27 09:12:38;;;;;;;1.97;1.50;;;4.60;99.90;;;;;;5009497;28;20233;-73
2024/01/27 09:15:04;;;;;;;2.50;1.90;;;4.70;99.90;;;;;;5005981;28;20453;-72
2024/01/27 09:17:29;;;;;;;7.40;1.70;;;4.60;99.90;;;;;;5005872;28;20233;-72
2024/01/27 09:19:55;;;;;;;5.43;1.90;;;4.70;99.90;;;;;;5001241;28;20473;-73
2024/01/27 09:22:21;;;;;;;4.57;1.93;;;4.80;99.90;;;;;;5003908;28;20265;-72
2024/01/27 09:24:46;;;;;;;4.73;2.17;;;4.90;99.90;;;;;;4995759;28;20595;-72
2024/01/27 09:27:12;;;;;;;7.57;2.00;;;5.00;99.90;;;;;;5006299;28;20272;-72
2024/01/27 09:29:38;;;;;;;3.30;1.43;;;5.10;99.90;;;;;;5013286;28;20236;-72
2024/01/27 09:32:04;;;;;;;3.43;1.90;;;5.10;99.90;;;;;;5009716;28;20293;-72
2024/01/27 09:34:30;;;;;;;3.80;1.83;;;5.20;99.90;;;;;;5002830;28;20458;-73
2024/01/27 09:36:55;;;;;;;2.53;2.10;;;5.30;99.90;;;;;;5011664;28;20464;-73
2024/01/27 09:39:21;;;;;;;8.20;2.13;;;5.40;99.90;;;;;;4988163;28;20226;-73
2024/01/27 09:41:48;;;;;;;2.73;1.87;;;5.50;99.90;;;;;;5010595;28;20232;-72
2024/01/27 09:44:19;;;;;;;3.73;2.10;;;5.50;99.90;;;;;;5007248;28;20317;-73
2024/01/27 09:46:47;;;;;;;2.10;1.90;;;5.60;99.90;;;;;;5011978;28;20511;-72
2024/01/27 09:49:14;;;;;;;10.03;2.40;;;5.70;99.90;;;;;;5011142;28;20995;-73
2024/01/27 09:51:41;;;;;;;3.10;2.20;;;5.80;99.90;;;;;;5010304;28;20977;-73
2024/01/27 09:54:07;;;;;;;3.30;2.77;;;5.70;99.90;;;;;;5010422;28;21046;-73
2024/01/27 09:56:33;;;;;;;3.93;2.13;;;5.70;99.90;;;;;;5010551;28;20460;-73
2024/01/27 09:59:00;;;;;;;6.20;2.83;;;5.70;99.90;;;;;;4982180;28;20214;-72
2024/01/27 10:01:28;;;;;;;4.23;2.00;;;5.70;99.90;;;;;;4986424;28;20873;-73
2024/01/27 10:03:58;;;;;;;9.30;3.10;;;5.60;99.90;;;;;;5003768;28;20580;-72
2024/01/27 10:06:23;;;;;;;5.70;2.20;;;5.70;99.90;;;;;;5000971;28;20457;-73
2024/01/27 10:08:54;;;;;;;6.10;2.50;;;5.90;99.90;;;;;;5006994;28;20527;-73
2024/01/27 10:11:21;;;;;;;8.07;2.87;;;6.00;99.90;;;;;;4998201;28;20222;-73
2024/01/27 10:13:57;;;;;;;7.17;2.07;;;6.20;99.90;;;;;;5011340;28;20456;-73
2024/01/27 10:16:23;;;;;;;3.83;2.60;;;6.20;99.90;;;;;;5002559;28;20456;-73
2024/01/27 10:19:02;;;;;;;9.73;2.43;;;6.40;99.90;;;;;;4993601;28;20464;-72
2024/01/27 10:21:27;;;;;;;2.73;2.50;;;6.50;99.90;;;;;;4985886;28;20230;-73
2024/01/27 10:23:53;;;;;;;2.10;1.60;;;6.60;99.90;;;;;;4990949;28;20469;-73
2024/01/27 10:26:19;;;;;;;4.83;1.90;;;6.60;99.90;;;;;;4986192;28;20717;-73
2024/01/27 10:28:57;;;;;;;4.40;2.40;;;6.70;99.90;;;;;;4988120;28;20260;-72
2024/01/27 10:31:30;;;;;;;7.63;2.30;;;6.80;99.90;;;;;;4986227;28;20218;-73
2024/01/27 10:33:56;;;;;;;3.40;1.90;;;6.80;99.90;;;;;;4973967;28;20465;-73
2024/01/27 10:36:23;;;;;;;2.67;1.97;;;7.00;99.90;;;;;;4991198;28;20523;-73
2024/01/27 10:38:48;;;;;;;4.67;1.63;;;7.10;99.90;;;;;;5002386;28;20457;-72
2024/01/27 10:41:24;;;;;;;1.73;1.33;;;7.20;99.90;;;;;;5007309;28;20508;-73
2024/01/27 10:43:55;;;;;;;5.80;2.43;;;7.40;99.90;;;;;;5004612;28;20305;-73
2024/01/27 10:46:22;;;;;;;5.07;1.87;;;7.60;99.90;;;;;;5001461;28;20544;-73
2024/01/27 10:48:52;;;;;;;2.30;1.63;;;7.70;99.90;;;;;;4999380;28;20548;-73
2024/01/27 10:51:30;;;;;;;5.10;1.90;;;7.80;99.90;;;;;;5003377;28;20445;-74
2024/01/27 10:54:01;;;;;;;3.20;2.30;;;8.00;99.90;;;;;;4996559;28;20468;-73
2024/01/27 10:56:29;;;;;;;3.10;1.73;;;8.10;99.90;;;;;;5007178;28;20447;-73
2024/01/27 10:58:56;;;;;;;2.43;1.80;;;8.20;99.90;;;;;;5008711;28;20552;-74
2024/01/27 11:01:22;;;;;;;3.50;1.80;;;8.30;99.90;;;;;;5000204;28;20482;-73
2024/01/27 11:03:49;;;;;;;2.43;1.40;;;8.30;99.90;;;;;;5006604;28;20464;-73
2024/01/27 11:06:17;;;;;;;3.63;2.03;;;8.30;99.90;;;;;;5000371;28;20503;-73
2024/01/27 11:08:43;;;;;;;2.53;2.00;;;8.20;99.90;;;;;;4990973;28;20449;-72
2024/01/27 11:11:09;;;;;;;7.03;2.60;;;8.20;99.90;;;;;;4988486;28;20507;-73
2024/01/27 11:13:36;;;;;;;11.13;3.73;;;8.30;99.90;;;;;;5004257;28;20457;-73
2024/01/27 11:16:02;;;;;;;12.67;3.40;;;8.20;99.90;;;;;;5007951;28;20217;-73
2024/01/27 11:18:29;;;;;;;3.80;2.20;;;8.00;99.90;;;;;;5002611;28;20449;-73
2024/01/27 11:20:56;;;;;;;7.50;3.27;;;8.00;99.90;;;;;;4987860;28;20217;-75
2024/01/27 11:23:35;;;;;;;3.20;2.10;;;8.00;99.90;;;;;;5006483;28;20480;-73
2024/01/27 11:26:08;;;;;;;4.70;1.90;;;8.30;99.90;;;;;;4991930;28;20546;-73
2024/01/27 11:28:35;;;;;;;6.77;2.07;;;8.40;99.90;;;;;;4988012;28;20456;-73
2024/01/27 11:31:05;;;;;;;7.77;3.10;;;8.50;99.90;;;;;;5004440;28;20511;-73
2024/01/27 11:33:31;;;;;;;2.93;2.07;;;8.50;99.90;;;;;;5000153;28;20444;-73
2024/01/27 11:36:04;;;;;;;6.87;2.40;;;8.70;99.90;;;;;;5006263;28;20801;-73
2024/01/27 11:38:31;;;;;;;4.87;2.53;;;8.90;99.90;;;;;;5003007;28;20220;-72
2024/01/27 11:40:56;;;;;;;5.87;2.90;;;8.70;99.90;;;;;;5002080;28;20543;-72
2024/01/27 11:43:22;;;;;;;5.93;2.37;;;8.80;99.90;;;;;;4984910;28;20545;-73
2024/01/27 11:46:01;;;;;;;2.17;1.77;;;8.90;99.90;;;;;;5004940;28;20256;-72
2024/01/27 11:48:29;;;;;;;6.53;2.07;;;9.00;99.90;;;;;;4999371;28;20241;-72
2024/01/27 11:51:10;;;;;;;6.20;2.30;;;9.00;99.90;;;;;;5006017;28;20449;-74
2024/01/27 11:53:36;;;;;;;3.97;2.50;;;9.40;99.90;;;;;;4999680;28;20465;-73
2024/01/27 11:56:04;;;;;;;3.33;2.43;;;9.40;99.90;;;;;;4999069;28;20464;-73
2024/01/27 11:58:30;;;;;;;2.93;2.63;;;9.30;99.90;;;;;;5010393;28;20918;-72
2024/01/27 12:00:56;;;;;;;6.10;2.10;;;9.30;99.90;;;;;;4997922;28;20541;-73
2024/01/27 12:03:23;;;;;;;2.07;1.70;;;9.30;99.90;;;;;;4984610;28;20594;-73
2024/01/27 12:05:48;;;;;;;5.67;2.80;;;9.30;99.90;;;;;;4991380;28;20864;-72
2024/01/27 12:08:14;;;;;;;4.93;2.33;;;9.30;99.90;;;;;;4996790;28;20450;-73
2024/01/27 12:10:40;;;;;;;2.83;2.50;;;9.20;99.90;;;;;;5005431;28;20312;-72
2024/01/27 12:13:05;;;;;;;4.03;2.17;;;9.10;99.90;;;;;;4991572;28;20695;-73
2024/01/27 12:15:31;;;;;;;3.80;2.17;;;9.20;99.90;;;;;;5012378;28;20320;-73
2024/01/27 12:17:56;;;;;;;3.37;2.03;;;9.40;99.90;;;;;;5007017;28;20225;-73
2024/01/27 12:20:23;;;;;;;8.77;2.60;;;9.60;99.90;;;;;;5005834;28;20280;-73
2024/01/27 12:22:54;;;;;;;5.37;2.20;;;9.50;99.90;;;;;;5000024;28;20245;-72
2024/01/27 12:25:21;;;;;;;2.40;1.93;;;9.50;99.90;;;;;;5007783;28;20476;-73
2024/01/27 12:27:46;;;;;;;6.13;1.93;;;9.60;99.90;;;;;;4988723;28;20465;-73
2024/01/27 12:30:13;;;;;;;3.40;2.03;;;9.70;99.90;;;;;;4994844;28;20514;-73
2024/01/27 12:32:38;;;;;;;2.90;1.73;;;9.80;99.90;;;;;;5007853;28;20226;-73
2024/01/27 12:35:08;;;;;;;6.67;2.17;;;10.10;99.90;;;;;;5011929;28;20474;-73
2024/01/27 12:37:35;;;;;;;1.57;1.47;;;10.40;99.90;;;;;;5002063;28;20230;-72
2024/01/27 12:40:00;;;;;;;3.80;2.33;;;10.40;99.90;;;;;;5004523;28;20505;-73
2024/01/27 12:42:26;;;;;;;2.60;1.77;;;10.50;99.90;;;;;;4994582;28;20890;-73
2024/01/27 12:44:52;;;;;;;3.07;1.33;;;10.30;99.90;;;;;;5006646;28;20233;-73
2024/01/27 12:47:19;;;;;;;9.10;2.00;;;10.30;99.90;;;;;;5000995;28;20234;-73
2024/01/27 12:49:45;;;;;;;8.30;1.90;;;10.10;99.90;;;;;;5005014;28;20226;-71